Aviation Digital Data Service (ADDS)

Output produced by METARs form (0034 UTC 01 March 2015)
found at http://aviationweather.gov/adds/metars/
 
KJFK 282329Z 0100/0206 VRB04KT P6SM SCT250 
     FM010800 VRB03KT P6SM BKN100 
     FM011100 VRB03KT P6SM OVC070 
     FM011400 17005KT 4SM -SN SCT025 OVC040 
     FM011600 18006KT 2SM -SN OVC015 
     FM012100 17006KT 1SM -SN OVC008 
     FM020300 VRB04KT 1SM -FZRASN OVC008